sensor_id;sensor_type;location;lat;lon;timestamp;P1;durP1;ratioP1;P2;durP2;ratioP2
36205;SDS011;22242;48.796;9.930;2023-05-24T00:01:54;8.02;;;5.60;;
36205;SDS011;22242;48.796;9.930;2023-05-24T00:04:22;9.30;;;5.47;;
36205;SDS011;22242;48.796;9.930;2023-05-24T00:06:50;8.00;;;5.45;;
36205;SDS011;22242;48.796;9.930;2023-05-24T00:09:20;7.72;;;5.38;;
36205;SDS011;22242;48.796;9.930;2023-05-24T00:11:47;7.32;;;5.20;;
36205;SDS011;22242;48.796;9.930;2023-05-24T00:14:14;9.23;;;5.43;;
36205;SDS011;22242;48.796;9.930;2023-05-24T00:16:41;9.98;;;5.50;;
36205;SDS011;22242;48.796;9.930;2023-05-24T00:19:10;5.68;;;4.90;;
36205;SDS011;22242;48.796;9.930;2023-05-24T00:21:42;9.63;;;5.20;;
36205;SDS011;22242;48.796;9.930;2023-05-24T00:24:10;7.05;;;5.18;;
36205;SDS011;22242;48.796;9.930;2023-05-24T00:26:38;8.88;;;4.80;;
36205;SDS011;22242;48.796;9.930;2023-05-24T00:29:05;11.43;;;4.90;;
36205;SDS011;22242;48.796;9.930;2023-05-24T00:31:33;8.02;;;4.78;;
36205;SDS011;22242;48.796;9.930;2023-05-24T00:34:00;9.95;;;4.93;;
36205;SDS011;22242;48.796;9.930;2023-05-24T00:36:27;7.10;;;5.32;;
36205;SDS011;22242;48.796;9.930;2023-05-24T00:38:54;8.48;;;5.57;;
36205;SDS011;22242;48.796;9.930;2023-05-24T00:41:21;7.20;;;5.35;;
36205;SDS011;22242;48.796;9.930;2023-05-24T00:43:49;8.60;;;5.18;;
36205;SDS011;22242;48.796;9.930;2023-05-24T00:46:17;8.00;;;5.45;;
36205;SDS011;22242;48.796;9.930;2023-05-24T00:48:47;9.57;;;5.43;;
36205;SDS011;22242;48.796;9.930;2023-05-24T00:51:16;9.32;;;5.57;;
36205;SDS011;22242;48.796;9.930;2023-05-24T00:53:44;8.57;;;4.97;;
36205;SDS011;22242;48.796;9.930;2023-05-24T00:56:12;8.73;;;5.35;;
36205;SDS011;22242;48.796;9.930;2023-05-24T00:58:40;6.68;;;4.90;;
36205;SDS011;22242;48.796;9.930;2023-05-24T01:01:10;7.13;;;5.03;;
36205;SDS011;22242;48.796;9.930;2023-05-24T01:03:38;6.72;;;4.75;;
36205;SDS011;22242;48.796;9.930;2023-05-24T01:06:06;8.20;;;5.20;;
36205;SDS011;22242;48.796;9.930;2023-05-24T01:08:41;8.63;;;4.90;;
36205;SDS011;22242;48.796;9.930;2023-05-24T01:11:16;6.68;;;5.20;;
36205;SDS011;22242;48.796;9.930;2023-05-24T01:13:53;8.07;;;4.90;;
36205;SDS011;22242;48.796;9.930;2023-05-24T01:16:30;9.98;;;5.90;;
36205;SDS011;22242;48.796;9.930;2023-05-24T01:19:09;9.02;;;5.35;;
36205;SDS011;22242;48.796;9.930;2023-05-24T01:21:53;8.02;;;5.00;;
36205;SDS011;22242;48.796;9.930;2023-05-24T01:24:38;8.20;;;5.50;;
36205;SDS011;22242;48.796;9.930;2023-05-24T01:27:19;10.02;;;5.25;;
36205;SDS011;22242;48.796;9.930;2023-05-24T01:29:49;7.25;;;5.22;;
36205;SDS011;22242;48.796;9.930;2023-05-24T01:32:18;8.18;;;5.22;;
36205;SDS011;22242;48.796;9.930;2023-05-24T01:34:45;10.88;;;5.18;;
36205;SDS011;22242;48.796;9.930;2023-05-24T01:37:14;8.95;;;5.25;;
36205;SDS011;22242;48.796;9.930;2023-05-24T01:39:42;10.43;;;4.82;;
36205;SDS011;22242;48.796;9.930;2023-05-24T01:42:18;8.82;;;4.97;;
36205;SDS011;22242;48.796;9.930;2023-05-24T01:44:58;9.02;;;5.30;;
36205;SDS011;22242;48.796;9.930;2023-05-24T01:47:33;9.63;;;5.22;;
36205;SDS011;22242;48.796;9.930;2023-05-24T01:50:12;8.00;;;4.93;;
36205;SDS011;22242;48.796;9.930;2023-05-24T01:52:43;9.95;;;5.95;;
36205;SDS011;22242;48.796;9.930;2023-05-24T01:55:14;8.88;;;4.95;;
36205;SDS011;22242;48.796;9.930;2023-05-24T01:57:44;5.95;;;4.97;;
36205;SDS011;22242;48.796;9.930;2023-05-24T02:00:14;9.45;;;5.00;;
36205;SDS011;22242;48.796;9.930;2023-05-24T02:02:44;8.63;;;5.45;;
36205;SDS011;22242;48.796;9.930;2023-05-24T02:05:11;8.77;;;5.45;;
36205;SDS011;22242;48.796;9.930;2023-05-24T02:07:38;8.60;;;5.10;;
36205;SDS011;22242;48.796;9.930;2023-05-24T02:10:07;10.05;;;5.07;;
36205;SDS011;22242;48.796;9.930;2023-05-24T02:12:34;9.48;;;5.35;;
36205;SDS011;22242;48.796;9.930;2023-05-24T02:15:03;13.27;;;5.53;;
36205;SDS011;22242;48.796;9.930;2023-05-24T02:17:31;9.07;;;5.53;;
36205;SDS011;22242;48.796;9.930;2023-05-24T02:19:58;9.48;;;5.38;;
36205;SDS011;22242;48.796;9.930;2023-05-24T02:22:25;8.80;;;4.95;;
36205;SDS011;22242;48.796;9.930;2023-05-24T02:24:53;13.57;;;5.18;;
36205;SDS011;22242;48.796;9.930;2023-05-24T02:27:20;10.13;;;5.20;;
36205;SDS011;22242;48.796;9.930;2023-05-24T02:29:47;7.78;;;4.95;;
36205;SDS011;22242;48.796;9.930;2023-05-24T02:32:15;9.85;;;5.32;;
36205;SDS011;22242;48.796;9.930;2023-05-24T02:34:42;6.93;;;4.93;;
36205;SDS011;22242;48.796;9.930;2023-05-24T02:37:09;10.27;;;5.05;;
36205;SDS011;22242;48.796;9.930;2023-05-24T02:39:39;10.23;;;5.10;;
36205;SDS011;22242;48.796;9.930;2023-05-24T02:42:07;10.00;;;4.85;;
36205;SDS011;22242;48.796;9.930;2023-05-24T02:44:35;10.90;;;5.13;;
36205;SDS011;22242;48.796;9.930;2023-05-24T02:47:02;8.98;;;4.93;;
36205;SDS011;22242;48.796;9.930;2023-05-24T02:49:31;7.32;;;4.68;;
36205;SDS011;22242;48.796;9.930;2023-05-24T02:51:58;10.55;;;5.15;;
36205;SDS011;22242;48.796;9.930;2023-05-24T02:54:25;9.52;;;5.07;;
36205;SDS011;22242;48.796;9.930;2023-05-24T02:56:52;10.80;;;5.72;;
36205;SDS011;22242;48.796;9.930;2023-05-24T02:59:20;11.52;;;5.50;;
36205;SDS011;22242;48.796;9.930;2023-05-24T03:01:48;16.98;;;5.82;;
36205;SDS011;22242;48.796;9.930;2023-05-24T03:04:15;10.98;;;5.28;;
36205;SDS011;22242;48.796;9.930;2023-05-24T03:06:44;8.85;;;4.68;;
36205;SDS011;22242;48.796;9.930;2023-05-24T03:09:12;8.07;;;4.80;;
36205;SDS011;22242;48.796;9.930;2023-05-24T03:11:41;9.13;;;5.20;;
36205;SDS011;22242;48.796;9.930;2023-05-24T03:14:08;8.13;;;4.55;;
36205;SDS011;22242;48.796;9.930;2023-05-24T03:16:37;13.95;;;5.68;;
36205;SDS011;22242;48.796;9.930;2023-05-24T03:19:04;10.35;;;5.90;;
36205;SDS011;22242;48.796;9.930;2023-05-24T03:21:31;12.25;;;5.45;;
36205;SDS011;22242;48.796;9.930;2023-05-24T03:23:59;7.95;;;4.95;;
36205;SDS011;22242;48.796;9.930;2023-05-24T03:26:26;13.35;;;5.13;;
36205;SDS011;22242;48.796;9.930;2023-05-24T03:28:53;10.90;;;5.70;;
36205;SDS011;22242;48.796;9.930;2023-05-24T03:31:26;13.80;;;5.35;;
36205;SDS011;22242;48.796;9.930;2023-05-24T03:33:54;9.30;;;4.90;;
36205;SDS011;22242;48.796;9.930;2023-05-24T03:36:21;10.70;;;5.25;;
36205;SDS011;22242;48.796;9.930;2023-05-24T03:38:50;17.10;;;6.05;;
36205;SDS011;22242;48.796;9.930;2023-05-24T03:41:20;11.23;;;5.60;;
36205;SDS011;22242;48.796;9.930;2023-05-24T03:43:47;12.55;;;5.75;;
36205;SDS011;22242;48.796;9.930;2023-05-24T03:46:16;14.75;;;5.93;;
36205;SDS011;22242;48.796;9.930;2023-05-24T03:48:43;14.88;;;5.95;;
36205;SDS011;22242;48.796;9.930;2023-05-24T03:51:10;13.13;;;5.75;;
36205;SDS011;22242;48.796;9.930;2023-05-24T03:53:37;16.98;;;5.97;;
36205;SDS011;22242;48.796;9.930;2023-05-24T03:56:04;15.45;;;5.55;;
36205;SDS011;22242;48.796;9.930;2023-05-24T03:58:33;10.43;;;5.25;;
36205;SDS011;22242;48.796;9.930;2023-05-24T04:01:00;16.95;;;5.50;;
36205;SDS011;22242;48.796;9.930;2023-05-24T04:03:27;15.90;;;5.28;;
36205;SDS011;22242;48.796;9.930;2023-05-24T04:05:54;12.60;;;4.88;;
36205;SDS011;22242;48.796;9.930;2023-05-24T04:08:21;10.95;;;5.15;;
36205;SDS011;22242;48.796;9.930;2023-05-24T04:10:48;17.20;;;6.20;;
36205;SDS011;22242;48.796;9.930;2023-05-24T04:13:16;13.10;;;5.18;;
36205;SDS011;22242;48.796;9.930;2023-05-24T04:15:44;14.80;;;5.63;;
36205;SDS011;22242;48.796;9.930;2023-05-24T04:18:11;14.68;;;5.40;;
36205;SDS011;22242;48.796;9.930;2023-05-24T04:20:38;12.55;;;4.78;;
36205;SDS011;22242;48.796;9.930;2023-05-24T04:23:07;12.82;;;5.60;;
36205;SDS011;22242;48.796;9.930;2023-05-24T04:25:34;15.10;;;5.20;;
36205;SDS011;22242;48.796;9.930;2023-05-24T04:28:03;11.23;;;5.57;;
36205;SDS011;22242;48.796;9.930;2023-05-24T04:30:31;13.32;;;5.65;;
36205;SDS011;22242;48.796;9.930;2023-05-24T04:32:59;11.30;;;4.95;;
36205;SDS011;22242;48.796;9.930;2023-05-24T04:35:28;11.07;;;5.00;;
36205;SDS011;22242;48.796;9.930;2023-05-24T04:37:55;12.10;;;5.50;;
36205;SDS011;22242;48.796;9.930;2023-05-24T04:40:24;11.95;;;5.18;;
36205;SDS011;22242;48.796;9.930;2023-05-24T04:42:51;11.32;;;5.15;;
36205;SDS011;22242;48.796;9.930;2023-05-24T04:45:18;14.18;;;5.85;;
36205;SDS011;22242;48.796;9.930;2023-05-24T04:47:45;9.45;;;5.13;;
36205;SDS011;22242;48.796;9.930;2023-05-24T04:50:13;13.10;;;5.32;;
36205;SDS011;22242;48.796;9.930;2023-05-24T04:52:40;17.15;;;6.35;;
36205;SDS011;22242;48.796;9.930;2023-05-24T04:55:07;11.50;;;4.93;;
36205;SDS011;22242;48.796;9.930;2023-05-24T04:57:35;11.00;;;5.30;;
36205;SDS011;22242;48.796;9.930;2023-05-24T05:00:02;10.13;;;4.40;;
36205;SDS011;22242;48.796;9.930;2023-05-24T05:02:33;12.73;;;4.82;;
36205;SDS011;22242;48.796;9.930;2023-05-24T05:05:00;17.70;;;5.50;;
36205;SDS011;22242;48.796;9.930;2023-05-24T05:07:28;18.80;;;5.43;;
36205;SDS011;22242;48.796;9.930;2023-05-24T05:09:55;9.68;;;5.15;;
36205;SDS011;22242;48.796;9.930;2023-05-24T05:12:22;16.10;;;6.30;;
36205;SDS011;22242;48.796;9.930;2023-05-24T05:14:49;13.77;;;4.97;;
36205;SDS011;22242;48.796;9.930;2023-05-24T05:17:16;17.13;;;5.50;;
36205;SDS011;22242;48.796;9.930;2023-05-24T05:19:44;12.48;;;5.45;;
36205;SDS011;22242;48.796;9.930;2023-05-24T05:22:11;19.67;;;5.88;;
36205;SDS011;22242;48.796;9.930;2023-05-24T05:24:39;15.48;;;5.50;;
36205;SDS011;22242;48.796;9.930;2023-05-24T05:27:06;14.25;;;5.07;;
36205;SDS011;22242;48.796;9.930;2023-05-24T05:29:33;13.07;;;5.10;;
36205;SDS011;22242;48.796;9.930;2023-05-24T05:32:00;13.38;;;5.07;;
36205;SDS011;22242;48.796;9.930;2023-05-24T05:34:27;9.63;;;4.60;;
36205;SDS011;22242;48.796;9.930;2023-05-24T05:36:54;16.23;;;5.20;;
36205;SDS011;22242;48.796;9.930;2023-05-24T05:39:21;9.82;;;5.63;;
36205;SDS011;22242;48.796;9.930;2023-05-24T05:41:51;13.40;;;5.68;;
36205;SDS011;22242;48.796;9.930;2023-05-24T05:44:18;11.60;;;5.03;;
36205;SDS011;22242;48.796;9.930;2023-05-24T05:46:45;13.00;;;4.78;;
36205;SDS011;22242;48.796;9.930;2023-05-24T05:49:13;13.60;;;5.07;;
36205;SDS011;22242;48.796;9.930;2023-05-24T05:51:42;12.27;;;4.82;;
36205;SDS011;22242;48.796;9.930;2023-05-24T05:54:11;10.98;;;4.85;;
36205;SDS011;22242;48.796;9.930;2023-05-24T05:56:42;14.18;;;4.88;;
36205;SDS011;22242;48.796;9.930;2023-05-24T05:59:13;14.98;;;4.90;;
36205;SDS011;22242;48.796;9.930;2023-05-24T06:01:40;10.25;;;5.07;;
36205;SDS011;22242;48.796;9.930;2023-05-24T06:04:08;11.38;;;4.70;;
36205;SDS011;22242;48.796;9.930;2023-05-24T06:06:35;18.13;;;5.43;;
36205;SDS011;22242;48.796;9.930;2023-05-24T06:09:02;14.65;;;6.10;;
36205;SDS011;22242;48.796;9.930;2023-05-24T06:11:29;9.45;;;4.53;;
36205;SDS011;22242;48.796;9.930;2023-05-24T06:13:56;10.90;;;4.90;;
36205;SDS011;22242;48.796;9.930;2023-05-24T06:16:25;17.45;;;4.97;;
36205;SDS011;22242;48.796;9.930;2023-05-24T06:18:53;12.18;;;4.60;;
36205;SDS011;22242;48.796;9.930;2023-05-24T06:21:20;8.98;;;4.78;;
36205;SDS011;22242;48.796;9.930;2023-05-24T06:23:47;14.80;;;4.53;;
36205;SDS011;22242;48.796;9.930;2023-05-24T06:26:14;16.75;;;5.03;;
36205;SDS011;22242;48.796;9.930;2023-05-24T06:28:41;14.00;;;4.50;;
36205;SDS011;22242;48.796;9.930;2023-05-24T06:31:09;17.15;;;4.88;;
36205;SDS011;22242;48.796;9.930;2023-05-24T06:33:37;10.52;;;4.57;;
36205;SDS011;22242;48.796;9.930;2023-05-24T06:36:04;15.40;;;5.13;;
36205;SDS011;22242;48.796;9.930;2023-05-24T06:38:31;12.57;;;4.57;;
36205;SDS011;22242;48.796;9.930;2023-05-24T06:41:00;19.27;;;5.22;;
36205;SDS011;22242;48.796;9.930;2023-05-24T06:43:27;14.68;;;4.60;;
36205;SDS011;22242;48.796;9.930;2023-05-24T06:45:55;18.88;;;5.00;;
36205;SDS011;22242;48.796;9.930;2023-05-24T06:48:22;12.27;;;4.15;;
36205;SDS011;22242;48.796;9.930;2023-05-24T06:50:50;9.05;;;4.20;;
36205;SDS011;22242;48.796;9.930;2023-05-24T06:53:17;12.45;;;4.78;;
36205;SDS011;22242;48.796;9.930;2023-05-24T06:55:44;12.38;;;4.28;;
36205;SDS011;22242;48.796;9.930;2023-05-24T06:58:11;11.85;;;3.95;;
36205;SDS011;22242;48.796;9.930;2023-05-24T07:00:38;15.93;;;5.68;;
36205;SDS011;22242;48.796;9.930;2023-05-24T07:03:07;10.80;;;5.05;;
36205;SDS011;22242;48.796;9.930;2023-05-24T07:05:35;15.35;;;3.97;;
36205;SDS011;22242;48.796;9.930;2023-05-24T07:08:04;13.30;;;4.40;;
36205;SDS011;22242;48.796;9.930;2023-05-24T07:10:31;11.25;;;4.60;;
36205;SDS011;22242;48.796;9.930;2023-05-24T07:12:58;11.13;;;4.55;;
36205;SDS011;22242;48.796;9.930;2023-05-24T07:15:25;14.00;;;4.95;;
36205;SDS011;22242;48.796;9.930;2023-05-24T07:17:53;11.15;;;4.50;;
36205;SDS011;22242;48.796;9.930;2023-05-24T07:20:20;19.02;;;4.82;;
36205;SDS011;22242;48.796;9.930;2023-05-24T07:22:47;21.17;;;5.70;;
36205;SDS011;22242;48.796;9.930;2023-05-24T07:25:15;13.30;;;4.63;;
36205;SDS011;22242;48.796;9.930;2023-05-24T07:27:43;16.95;;;4.55;;
36205;SDS011;22242;48.796;9.930;2023-05-24T07:30:10;13.18;;;4.65;;
36205;SDS011;22242;48.796;9.930;2023-05-24T07:32:37;15.32;;;4.53;;
36205;SDS011;22242;48.796;9.930;2023-05-24T07:35:05;14.52;;;4.75;;
36205;SDS011;22242;48.796;9.930;2023-05-24T07:37:32;13.27;;;4.30;;
36205;SDS011;22242;48.796;9.930;2023-05-24T07:39:59;12.02;;;4.35;;
36205;SDS011;22242;48.796;9.930;2023-05-24T07:42:27;19.70;;;4.65;;
36205;SDS011;22242;48.796;9.930;2023-05-24T07:44:55;14.70;;;4.22;;
36205;SDS011;22242;48.796;9.930;2023-05-24T07:47:22;10.38;;;4.20;;
36205;SDS011;22242;48.796;9.930;2023-05-24T07:49:49;13.02;;;4.38;;
36205;SDS011;22242;48.796;9.930;2023-05-24T07:52:16;16.38;;;4.18;;
36205;SDS011;22242;48.796;9.930;2023-05-24T07:54:43;17.33;;;4.40;;
36205;SDS011;22242;48.796;9.930;2023-05-24T07:57:10;9.35;;;4.20;;
36205;SDS011;22242;48.796;9.930;2023-05-24T07:59:39;14.57;;;4.10;;
36205;SDS011;22242;48.796;9.930;2023-05-24T08:02:06;13.15;;;4.32;;
36205;SDS011;22242;48.796;9.930;2023-05-24T08:04:35;13.95;;;4.40;;
36205;SDS011;22242;48.796;9.930;2023-05-24T08:07:03;18.13;;;4.07;;
36205;SDS011;22242;48.796;9.930;2023-05-24T08:09:30;12.75;;;4.35;;
36205;SDS011;22242;48.796;9.930;2023-05-24T08:12:00;12.23;;;4.03;;
36205;SDS011;22242;48.796;9.930;2023-05-24T08:14:27;15.80;;;4.57;;
36205;SDS011;22242;48.796;9.930;2023-05-24T08:16:55;11.27;;;4.78;;
36205;SDS011;22242;48.796;9.930;2023-05-24T08:19:22;9.77;;;4.60;;
36205;SDS011;22242;48.796;9.930;2023-05-24T08:21:49;15.27;;;4.38;;
36205;SDS011;22242;48.796;9.930;2023-05-24T08:24:16;12.32;;;4.43;;
36205;SDS011;22242;48.796;9.930;2023-05-24T08:26:43;12.85;;;4.65;;
36205;SDS011;22242;48.796;9.930;2023-05-24T08:29:10;17.75;;;4.80;;
36205;SDS011;22242;48.796;9.930;2023-05-24T08:31:37;15.60;;;5.00;;
36205;SDS011;22242;48.796;9.930;2023-05-24T08:34:05;15.68;;;4.18;;
36205;SDS011;22242;48.796;9.930;2023-05-24T08:36:32;11.95;;;4.32;;
36205;SDS011;22242;48.796;9.930;2023-05-24T08:38:59;11.40;;;4.30;;
36205;SDS011;22242;48.796;9.930;2023-05-24T08:41:27;15.52;;;4.75;;
36205;SDS011;22242;48.796;9.930;2023-05-24T08:43:54;17.90;;;4.38;;
36205;SDS011;22242;48.796;9.930;2023-05-24T08:46:26;12.73;;;3.83;;
36205;SDS011;22242;48.796;9.930;2023-05-24T08:48:54;10.70;;;3.67;;
36205;SDS011;22242;48.796;9.930;2023-05-24T08:51:24;15.18;;;3.90;;
36205;SDS011;22242;48.796;9.930;2023-05-24T08:53:51;16.60;;;4.13;;
36205;SDS011;22242;48.796;9.930;2023-05-24T08:56:20;16.00;;;4.63;;
36205;SDS011;22242;48.796;9.930;2023-05-24T08:58:49;14.45;;;4.80;;
36205;SDS011;22242;48.796;9.930;2023-05-24T09:01:16;14.45;;;4.40;;
36205;SDS011;22242;48.796;9.930;2023-05-24T09:03:43;13.15;;;4.07;;
36205;SDS011;22242;48.796;9.930;2023-05-24T09:06:12;16.85;;;4.35;;
36205;SDS011;22242;48.796;9.930;2023-05-24T09:08:42;11.70;;;3.90;;
36205;SDS011;22242;48.796;9.930;2023-05-24T09:11:10;12.98;;;4.20;;
36205;SDS011;22242;48.796;9.930;2023-05-24T09:13:39;14.40;;;4.28;;
36205;SDS011;22242;48.796;9.930;2023-05-24T09:16:07;9.40;;;3.80;;
36205;SDS011;22242;48.796;9.930;2023-05-24T09:18:34;8.70;;;3.95;;
36205;SDS011;22242;48.796;9.930;2023-05-24T09:21:01;13.15;;;3.88;;
36205;SDS011;22242;48.796;9.930;2023-05-24T09:23:28;11.52;;;4.57;;
36205;SDS011;22242;48.796;9.930;2023-05-24T09:25:57;14.60;;;4.25;;
36205;SDS011;22242;48.796;9.930;2023-05-24T09:28:33;16.30;;;3.75;;
36205;SDS011;22242;48.796;9.930;2023-05-24T09:31:01;11.88;;;4.63;;
36205;SDS011;22242;48.796;9.930;2023-05-24T09:33:29;11.20;;;4.38;;
36205;SDS011;22242;48.796;9.930;2023-05-24T09:35:57;12.32;;;4.07;;
36205;SDS011;22242;48.796;9.930;2023-05-24T09:38:25;16.20;;;4.25;;
36205;SDS011;22242;48.796;9.930;2023-05-24T09:40:59;15.90;;;4.57;;
36205;SDS011;22242;48.796;9.930;2023-05-24T09:43:27;12.65;;;3.90;;
36205;SDS011;22242;48.796;9.930;2023-05-24T09:45:55;15.70;;;4.00;;
36205;SDS011;22242;48.796;9.930;2023-05-24T09:48:24;10.98;;;4.05;;
36205;SDS011;22242;48.796;9.930;2023-05-24T09:50:58;13.43;;;4.07;;
36205;SDS011;22242;48.796;9.930;2023-05-24T09:53:29;12.32;;;3.92;;
36205;SDS011;22242;48.796;9.930;2023-05-24T09:55:59;9.55;;;3.78;;
36205;SDS011;22242;48.796;9.930;2023-05-24T09:58:28;13.13;;;4.95;;
36205;SDS011;22242;48.796;9.930;2023-05-24T10:01:06;11.30;;;4.50;;
36205;SDS011;22242;48.796;9.930;2023-05-24T10:03:34;16.40;;;4.50;;
36205;SDS011;22242;48.796;9.930;2023-05-24T10:06:02;10.27;;;3.85;;
36205;SDS011;22242;48.796;9.930;2023-05-24T10:08:32;15.15;;;4.22;;
36205;SDS011;22242;48.796;9.930;2023-05-24T10:11:02;15.68;;;4.22;;
36205;SDS011;22242;48.796;9.930;2023-05-24T10:13:31;12.75;;;4.20;;
36205;SDS011;22242;48.796;9.930;2023-05-24T10:16:00;13.88;;;3.95;;
36205;SDS011;22242;48.796;9.930;2023-05-24T10:18:27;16.88;;;5.32;;
36205;SDS011;22242;48.796;9.930;2023-05-24T10:20:54;13.45;;;4.32;;
36205;SDS011;22242;48.796;9.930;2023-05-24T10:23:22;18.27;;;5.57;;
36205;SDS011;22242;48.796;9.930;2023-05-24T10:25:54;11.02;;;4.32;;
36205;SDS011;22242;48.796;9.930;2023-05-24T10:28:29;11.40;;;4.10;;
36205;SDS011;22242;48.796;9.930;2023-05-24T10:31:00;9.30;;;3.80;;
36205;SDS011;22242;48.796;9.930;2023-05-24T10:33:31;15.90;;;4.68;;
36205;SDS011;22242;48.796;9.930;2023-05-24T10:36:02;12.95;;;4.45;;
36205;SDS011;22242;48.796;9.930;2023-05-24T10:38:32;15.57;;;4.22;;
36205;SDS011;22242;48.796;9.930;2023-05-24T10:40:59;17.38;;;4.35;;
36205;SDS011;22242;48.796;9.930;2023-05-24T10:43:27;13.27;;;4.60;;
36205;SDS011;22242;48.796;9.930;2023-05-24T10:45:56;12.10;;;4.22;;
36205;SDS011;22242;48.796;9.930;2023-05-24T10:48:38;14.15;;;4.30;;
36205;SDS011;22242;48.796;9.930;2023-05-24T10:56:52;11.68;;;3.75;;
36205;SDS011;22242;48.796;9.930;2023-05-24T10:59:29;14.52;;;4.68;;
36205;SDS011;22242;48.796;9.930;2023-05-24T11:02:02;12.05;;;3.90;;
36205;SDS011;22242;48.796;9.930;2023-05-24T11:04:31;13.77;;;4.07;;
36205;SDS011;22242;48.796;9.930;2023-05-24T11:07:02;13.05;;;3.88;;
36205;SDS011;22242;48.796;9.930;2023-05-24T11:09:30;15.57;;;3.88;;
36205;SDS011;22242;48.796;9.930;2023-05-24T11:14:37;13.75;;;4.05;;
36205;SDS011;22242;48.796;9.930;2023-05-24T11:17:05;10.82;;;3.97;;
36205;SDS011;22242;48.796;9.930;2023-05-24T11:19:33;13.90;;;4.75;;
36205;SDS011;22242;48.796;9.930;2023-05-24T11:22:04;12.75;;;4.18;;
36205;SDS011;22242;48.796;9.930;2023-05-24T11:24:33;13.35;;;4.95;;
36205;SDS011;22242;48.796;9.930;2023-05-24T11:27:00;11.25;;;4.43;;
36205;SDS011;22242;48.796;9.930;2023-05-24T11:29:28;13.80;;;4.35;;
36205;SDS011;22242;48.796;9.930;2023-05-24T11:31:57;10.93;;;4.18;;
36205;SDS011;22242;48.796;9.930;2023-05-24T11:34:28;20.20;;;4.35;;
36205;SDS011;22242;48.796;9.930;2023-05-24T11:36:57;15.40;;;4.28;;
36205;SDS011;22242;48.796;9.930;2023-05-24T11:39:27;12.27;;;4.43;;
36205;SDS011;22242;48.796;9.930;2023-05-24T11:41:54;13.70;;;4.10;;
36205;SDS011;22242;48.796;9.930;2023-05-24T11:44:22;12.55;;;3.92;;
36205;SDS011;22242;48.796;9.930;2023-05-24T11:46:57;12.45;;;3.75;;
36205;SDS011;22242;48.796;9.930;2023-05-24T11:49:24;11.48;;;4.00;;
36205;SDS011;22242;48.796;9.930;2023-05-24T11:51:52;14.75;;;4.70;;
36205;SDS011;22242;48.796;9.930;2023-05-24T11:54:20;17.33;;;5.00;;
36205;SDS011;22242;48.796;9.930;2023-05-24T11:56:50;14.18;;;3.95;;
36205;SDS011;22242;48.796;9.930;2023-05-24T12:01:57;16.35;;;3.90;;
36205;SDS011;22242;48.796;9.930;2023-05-24T12:04:32;13.57;;;4.18;;
36205;SDS011;22242;48.796;9.930;2023-05-24T12:07:09;11.73;;;3.70;;
36205;SDS011;22242;48.796;9.930;2023-05-24T12:09:39;10.35;;;3.80;;
36205;SDS011;22242;48.796;9.930;2023-05-24T12:12:08;12.25;;;4.00;;
36205;SDS011;22242;48.796;9.930;2023-05-24T12:14:46;11.85;;;4.10;;
36205;SDS011;22242;48.796;9.930;2023-05-24T12:20:08;13.73;;;3.70;;
36205;SDS011;22242;48.796;9.930;2023-05-24T12:22:46;9.90;;;3.42;;
36205;SDS011;22242;48.796;9.930;2023-05-24T12:25:18;11.73;;;3.60;;
36205;SDS011;22242;48.796;9.930;2023-05-24T12:27:52;13.07;;;3.40;;
36205;SDS011;22242;48.796;9.930;2023-05-24T12:30:21;16.83;;;4.07;;
36205;SDS011;22242;48.796;9.930;2023-05-24T12:32:49;9.38;;;3.00;;
36205;SDS011;22242;48.796;9.930;2023-05-24T12:35:20;9.98;;;3.22;;
36205;SDS011;22242;48.796;9.930;2023-05-24T12:37:48;16.98;;;3.33;;
36205;SDS011;22242;48.796;9.930;2023-05-24T12:40:15;8.10;;;3.65;;
36205;SDS011;22242;48.796;9.930;2023-05-24T12:42:45;9.25;;;3.50;;
36205;SDS011;22242;48.796;9.930;2023-05-24T12:45:16;11.43;;;3.88;;
36205;SDS011;22242;48.796;9.930;2023-05-24T12:47:50;11.70;;;3.25;;
36205;SDS011;22242;48.796;9.930;2023-05-24T12:50:21;11.23;;;3.63;;
36205;SDS011;22242;48.796;9.930;2023-05-24T12:52:49;12.48;;;3.97;;
36205;SDS011;22242;48.796;9.930;2023-05-24T12:55:18;10.70;;;3.22;;
36205;SDS011;22242;48.796;9.930;2023-05-24T12:57:45;11.63;;;3.65;;
36205;SDS011;22242;48.796;9.930;2023-05-24T13:00:17;15.68;;;3.53;;
36205;SDS011;22242;48.796;9.930;2023-05-24T13:02:45;12.63;;;3.85;;
36205;SDS011;22242;48.796;9.930;2023-05-24T13:05:12;9.50;;;3.47;;
36205;SDS011;22242;48.796;9.930;2023-05-24T13:07:42;12.15;;;3.70;;
36205;SDS011;22242;48.796;9.930;2023-05-24T13:10:10;11.57;;;3.70;;
36205;SDS011;22242;48.796;9.930;2023-05-24T13:12:37;12.43;;;3.72;;
36205;SDS011;22242;48.796;9.930;2023-05-24T13:15:06;13.13;;;3.90;;
36205;SDS011;22242;48.796;9.930;2023-05-24T13:17:33;11.88;;;3.67;;
36205;SDS011;22242;48.796;9.930;2023-05-24T13:20:01;12.82;;;3.88;;
36205;SDS011;22242;48.796;9.930;2023-05-24T13:22:32;9.25;;;3.65;;
36205;SDS011;22242;48.796;9.930;2023-05-24T13:25:01;13.80;;;4.20;;
36205;SDS011;22242;48.796;9.930;2023-05-24T13:27:29;10.35;;;3.60;;
36205;SDS011;22242;48.796;9.930;2023-05-24T13:29:56;11.95;;;3.72;;
36205;SDS011;22242;48.796;9.930;2023-05-24T13:32:23;9.07;;;3.75;;
36205;SDS011;22242;48.796;9.930;2023-05-24T13:34:51;15.63;;;4.03;;
36205;SDS011;22242;48.796;9.930;2023-05-24T13:37:18;11.75;;;3.60;;
36205;SDS011;22242;48.796;9.930;2023-05-24T13:39:45;13.70;;;3.70;;
36205;SDS011;22242;48.796;9.930;2023-05-24T13:42:13;9.10;;;3.97;;
36205;SDS011;22242;48.796;9.930;2023-05-24T13:44:41;8.32;;;3.88;;
36205;SDS011;22242;48.796;9.930;2023-05-24T13:47:09;9.35;;;3.42;;
36205;SDS011;22242;48.796;9.930;2023-05-24T13:49:36;9.70;;;4.10;;
36205;SDS011;22242;48.796;9.930;2023-05-24T13:52:04;11.05;;;3.53;;
36205;SDS011;22242;48.796;9.930;2023-05-24T13:54:31;15.90;;;4.20;;
36205;SDS011;22242;48.796;9.930;2023-05-24T13:57:00;10.85;;;3.65;;
36205;SDS011;22242;48.796;9.930;2023-05-24T13:59:29;12.15;;;3.72;;
36205;SDS011;22242;48.796;9.930;2023-05-24T14:01:56;6.47;;;3.03;;
36205;SDS011;22242;48.796;9.930;2023-05-24T14:04:23;10.07;;;3.30;;
36205;SDS011;22242;48.796;9.930;2023-05-24T14:06:51;10.52;;;3.30;;
36205;SDS011;22242;48.796;9.930;2023-05-24T14:09:18;10.00;;;3.25;;
36205;SDS011;22242;48.796;9.930;2023-05-24T14:11:46;12.00;;;3.20;;
36205;SDS011;22242;48.796;9.930;2023-05-24T14:14:13;9.52;;;3.38;;
36205;SDS011;22242;48.796;9.930;2023-05-24T14:16:42;11.80;;;3.17;;
36205;SDS011;22242;48.796;9.930;2023-05-24T14:19:09;11.90;;;3.45;;
36205;SDS011;22242;48.796;9.930;2023-05-24T14:21:36;10.18;;;3.17;;
36205;SDS011;22242;48.796;9.930;2023-05-24T14:24:05;8.80;;;3.38;;
36205;SDS011;22242;48.796;9.930;2023-05-24T14:26:34;9.52;;;2.75;;
36205;SDS011;22242;48.796;9.930;2023-05-24T14:29:01;9.18;;;3.17;;
36205;SDS011;22242;48.796;9.930;2023-05-24T14:31:28;7.72;;;2.50;;
36205;SDS011;22242;48.796;9.930;2023-05-24T14:33:56;6.88;;;2.92;;
36205;SDS011;22242;48.796;9.930;2023-05-24T14:36:23;9.18;;;3.28;;
36205;SDS011;22242;48.796;9.930;2023-05-24T14:38:51;5.93;;;2.58;;
36205;SDS011;22242;48.796;9.930;2023-05-24T14:41:18;6.70;;;2.70;;
36205;SDS011;22242;48.796;9.930;2023-05-24T14:43:45;7.47;;;2.67;;
36205;SDS011;22242;48.796;9.930;2023-05-24T14:46:12;6.40;;;2.40;;
36205;SDS011;22242;48.796;9.930;2023-05-24T14:48:39;7.38;;;2.50;;
36205;SDS011;22242;48.796;9.930;2023-05-24T14:51:07;8.45;;;3.70;;
36205;SDS011;22242;48.796;9.930;2023-05-24T14:53:35;9.77;;;3.55;;
36205;SDS011;22242;48.796;9.930;2023-05-24T14:56:02;8.98;;;2.90;;
36205;SDS011;22242;48.796;9.930;2023-05-24T14:58:31;8.82;;;2.88;;
36205;SDS011;22242;48.796;9.930;2023-05-24T15:00:58;9.32;;;3.28;;